createdAt,value
2023-11-07T00:09:01.660Z,12.06
2023-11-07T00:29:24.153Z,10.23
2023-11-07T00:39:26.833Z,11.78
2023-11-07T00:49:29.204Z,13.28
2023-11-07T00:59:31.009Z,10.86
2023-11-07T01:09:32.842Z,11.04
2023-11-07T01:19:34.842Z,12.96
2023-11-07T01:29:37.084Z,12.98
2023-11-07T01:39:38.859Z,9.85
2023-11-07T01:49:40.905Z,10.52
2023-11-07T01:59:42.811Z,12.45
2023-11-07T02:09:44.701Z,12.14
2023-11-07T02:19:46.582Z,9.11
2023-11-07T02:29:49.069Z,10.50
2023-11-07T02:39:50.812Z,12.44
2023-11-07T02:49:53.239Z,13.17
2023-11-07T02:59:55.133Z,11.74
2023-11-07T03:09:57.124Z,8.98
2023-11-07T03:19:58.942Z,9.97
2023-11-07T03:30:00.803Z,12.24
2023-11-07T03:40:04.673Z,10.53
2023-11-07T03:50:07.227Z,10.31
2023-11-07T04:00:11.611Z,12.45
2023-11-07T04:10:14.316Z,13.52
2023-11-07T04:20:17.564Z,12.38
2023-11-07T04:30:19.309Z,9.81
2023-11-07T04:40:21.001Z,10.71
2023-11-07T04:50:22.829Z,13.30
2023-11-07T05:00:25.227Z,12.57
2023-11-07T05:10:26.900Z,11.55
2023-11-07T05:20:29.006Z,13.92
2023-11-07T05:30:31.949Z,13.07
2023-11-07T05:40:33.637Z,10.60
2023-11-07T05:50:35.495Z,11.94
2023-11-07T06:00:37.458Z,14.40
2023-11-07T06:10:39.132Z,13.39
2023-11-07T06:20:41.017Z,13.08
2023-11-07T06:30:43.774Z,13.18
2023-11-07T06:40:45.510Z,13.18
2023-11-07T06:50:47.565Z,14.85
2023-11-07T07:00:49.312Z,13.96
2023-11-07T07:10:54.051Z,13.96
2023-11-07T07:20:56.470Z,14.50
2023-11-07T07:31:01.071Z,14.73
2023-11-07T07:41:03.345Z,14.93
2023-11-07T07:51:07.766Z,14.51
2023-11-07T08:01:11.114Z,16.62
2023-11-07T08:11:14.489Z,15.75
2023-11-07T08:21:16.384Z,16.10
2023-11-07T08:31:18.138Z,16.03
2023-11-07T08:41:19.888Z,15.67
2023-11-07T08:51:21.785Z,15.24
2023-11-07T09:01:24.868Z,15.42
2023-11-07T09:11:26.561Z,16.22
2023-11-07T09:21:28.626Z,17.43
2023-11-07T09:31:30.294Z,17.09
2023-11-07T09:41:31.960Z,15.99
2023-11-07T09:51:37.079Z,16.79
2023-11-07T10:01:39.163Z,16.26
2023-11-07T10:11:51.224Z,16.93
2023-11-07T10:21:53.532Z,15.52
2023-11-07T10:32:11.317Z,15.64
2023-11-07T10:42:20.664Z,15.99
2023-11-07T10:52:22.678Z,14.81
2023-11-07T11:02:27.229Z,17.72
2023-11-07T11:12:29.494Z,17.10
2023-11-07T11:22:44.516Z,17.32
2023-11-07T11:33:06.511Z,17.48
2023-11-07T11:43:08.372Z,17.15
2023-11-07T11:53:10.526Z,16.71
2023-11-07T12:03:17.780Z,17.52
2023-11-07T12:13:24.366Z,15.90
2023-11-07T12:23:27.564Z,16.44
2023-11-07T12:33:41.229Z,17.62
2023-11-07T12:43:45.724Z,16.19
2023-11-07T12:53:50.142Z,16.72
2023-11-07T13:03:51.954Z,17.76
2023-11-07T13:13:53.718Z,16.05
2023-11-07T13:23:55.435Z,15.12
2023-11-07T13:33:57.307Z,14.49
2023-11-07T13:43:59.698Z,14.93
2023-11-07T13:54:01.535Z,17.71
2023-11-07T14:04:03.693Z,16.98
2023-11-07T14:14:06.363Z,14.51
2023-11-07T14:24:08.953Z,13.24
2023-11-07T14:34:11.539Z,14.77
2023-11-07T14:44:13.957Z,17.13
2023-11-07T14:54:15.849Z,16.16
2023-11-07T15:04:18.032Z,13.38
2023-11-07T15:14:19.764Z,11.69
2023-11-07T15:24:21.613Z,13.10
2023-11-07T15:34:23.470Z,15.51
2023-11-07T15:44:25.132Z,16.58
2023-11-07T15:54:27.213Z,15.54
2023-11-07T16:04:29.488Z,13.12
2023-11-07T16:14:33.391Z,14.02
2023-11-07T16:24:35.141Z,16.16
2023-11-07T16:34:37.152Z,15.27
2023-11-07T16:44:41.089Z,12.91
2023-11-07T16:54:43.136Z,11.71
2023-11-07T17:04:45.952Z,13.20
2023-11-07T17:14:47.702Z,15.80
2023-11-07T17:24:49.444Z,15.19
2023-11-07T17:34:55.348Z,12.98
2023-11-07T17:44:57.529Z,14.09
2023-11-07T17:54:59.357Z,15.88
2023-11-07T18:05:01.226Z,13.54
2023-11-07T18:15:05.260Z,14.09
2023-11-07T18:25:07.489Z,16.08
2023-11-07T18:35:09.551Z,13.91
2023-11-07T18:45:11.934Z,12.09
2023-11-07T18:55:14.149Z,13.54
2023-11-07T19:05:16.521Z,16.00
2023-11-07T19:15:18.251Z,14.75
2023-11-07T19:25:20.724Z,11.70
2023-11-07T19:35:22.517Z,13.22
2023-11-07T19:45:24.275Z,13.85
2023-11-07T19:55:28.225Z,12.25
2023-11-07T20:05:29.938Z,14.74
2023-11-07T20:15:31.688Z,13.93
2023-11-07T20:25:33.501Z,11.88
2023-11-07T20:35:40.218Z,14.50
2023-11-07T20:45:41.963Z,14.01
2023-11-07T20:55:43.678Z,11.63
2023-11-07T21:05:45.816Z,13.72
2023-11-07T21:15:47.496Z,13.65
2023-11-07T21:25:49.272Z,11.30
2023-11-07T21:35:50.979Z,12.69
2023-11-07T21:45:53.249Z,15.24
2023-11-07T21:55:56.112Z,14.14
2023-11-07T22:05:59.779Z,11.27
2023-11-07T22:16:01.484Z,9.44
2023-11-07T22:26:03.318Z,10.59
2023-11-07T22:36:06.833Z,12.97
2023-11-07T22:46:08.741Z,13.77
2023-11-07T22:56:10.622Z,12.24
2023-11-07T23:06:12.361Z,9.10
2023-11-07T23:16:14.144Z,9.97
2023-11-07T23:26:16.231Z,12.35
2023-11-07T23:36:18.836Z,13.23
2023-11-07T23:46:20.618Z,11.70
2023-11-07T23:56:23.080Z,8.61
